createdAt,value
2023-01-26T00:01:22.185Z,101651.00
2023-01-26T00:04:27.719Z,101647.59
2023-01-26T00:07:33.139Z,101634.94
2023-01-26T00:10:40.403Z,101640.03
2023-01-26T00:13:45.966Z,101645.09
2023-01-26T00:16:50.788Z,101650.97
2023-01-26T00:19:57.479Z,101654.38
2023-01-26T00:23:03.221Z,101644.22
2023-01-26T00:26:11.299Z,101651.78
2023-01-26T00:29:17.724Z,101650.91
2023-01-26T00:32:26.679Z,101650.13
2023-01-26T00:35:32.092Z,101647.59
2023-01-26T00:38:37.316Z,101651.78
2023-01-26T00:42:02.032Z,101656.03
2023-01-26T00:45:08.512Z,101666.97
2023-01-26T00:48:13.913Z,101652.66
2023-01-26T00:51:19.000Z,101644.22
2023-01-26T00:54:24.440Z,101644.22
2023-01-26T00:57:31.248Z,101640.84
2023-01-26T01:00:39.449Z,101643.38
2023-01-26T01:03:44.671Z,101654.34
2023-01-26T01:06:50.545Z,101661.94
2023-01-26T01:09:55.693Z,101653.47
2023-01-26T01:13:02.632Z,101651.81
2023-01-26T01:16:09.295Z,101652.66
2023-01-26T01:19:16.375Z,101653.50
2023-01-26T01:22:21.399Z,101659.41
2023-01-26T01:25:26.639Z,101645.88
2023-01-26T01:28:33.929Z,101659.44
2023-01-26T01:31:39.380Z,101651.81
2023-01-26T01:34:45.252Z,101656.88
2023-01-26T01:37:51.262Z,101653.50
2023-01-26T01:40:56.658Z,101663.59
2023-01-26T01:44:19.888Z,101669.53
2023-01-26T01:47:27.916Z,101676.28
2023-01-26T01:50:37.429Z,101682.25
2023-01-26T01:53:45.675Z,101673.75
2023-01-26T01:56:53.742Z,101680.53
2023-01-26T02:00:05.436Z,101673.78
2023-01-26T02:03:21.436Z,101665.31
2023-01-26T02:06:32.563Z,101687.22
2023-01-26T02:09:58.444Z,101678.00
2023-01-26T02:13:04.171Z,101676.25
2023-01-26T02:16:17.196Z,101670.34
2023-01-26T02:19:26.711Z,101672.84
2023-01-26T02:22:43.793Z,101665.25
2023-01-26T02:26:14.371Z,101668.66
2023-01-26T02:29:20.912Z,101667.78
2023-01-26T02:32:28.328Z,101659.31
2023-01-26T02:35:33.604Z,101670.28
2023-01-26T02:38:42.824Z,101668.59
2023-01-26T02:42:06.421Z,101662.69
2023-01-26T02:45:16.980Z,101674.53
2023-01-26T02:48:37.675Z,101667.75
2023-01-26T02:51:43.207Z,101667.75
2023-01-26T02:55:07.385Z,101675.38
2023-01-26T02:58:14.221Z,101684.56
2023-01-26T03:01:21.386Z,101684.56
2023-01-26T03:04:27.236Z,101677.81
2023-01-26T03:07:32.702Z,101674.44
2023-01-26T03:10:38.194Z,101684.56
2023-01-26T03:13:44.771Z,101678.72
2023-01-26T03:16:51.733Z,101671.13
2023-01-26T03:20:16.795Z,101677.03
2023-01-26T03:23:51.229Z,101676.94
2023-01-26T03:27:14.135Z,101666.88
2023-01-26T03:30:20.640Z,101683.78
2023-01-26T03:33:29.144Z,101683.78
2023-01-26T03:36:34.833Z,101688.81
2023-01-26T03:40:02.041Z,101690.44
2023-01-26T03:43:27.275Z,101691.28
2023-01-26T03:46:51.540Z,101687.94
2023-01-26T03:50:17.673Z,101698.91
2023-01-26T03:53:42.361Z,101703.22
2023-01-26T03:56:49.927Z,101691.38
2023-01-26T03:59:56.106Z,101692.22
2023-01-26T04:03:22.160Z,101693.06
2023-01-26T04:06:46.511Z,101684.66
2023-01-26T04:09:51.828Z,101701.50
2023-01-26T04:13:14.923Z,101705.72
2023-01-26T04:16:44.101Z,101711.66
2023-01-26T04:20:07.404Z,101708.28
2023-01-26T04:23:21.493Z,101704.06
2023-01-26T04:26:34.882Z,101716.72
2023-01-26T04:29:43.087Z,101709.13
2023-01-26T04:32:48.462Z,101719.34
2023-01-26T04:35:54.620Z,101709.16
2023-01-26T04:39:02.354Z,101719.28
2023-01-26T04:42:07.997Z,101714.22
2023-01-26T04:45:13.827Z,101717.66
2023-01-26T04:48:19.987Z,101702.44
2023-01-26T04:51:25.377Z,101713.41
2023-01-26T04:54:32.041Z,101709.19
2023-01-26T04:57:38.347Z,101722.72
2023-01-26T05:00:43.698Z,101726.13
2023-01-26T05:03:49.344Z,101734.50
2023-01-26T05:06:55.106Z,101736.22
2023-01-26T05:10:04.563Z,101740.44
2023-01-26T05:13:21.721Z,101735.38
2023-01-26T05:16:52.671Z,101745.50
2023-01-26T05:20:20.385Z,101742.13
2023-01-26T05:23:44.273Z,101752.31
2023-01-26T05:27:23.795Z,101754.00
2023-01-26T05:30:37.931Z,101755.69
2023-01-26T05:33:43.578Z,101762.47
2023-01-26T05:36:51.523Z,101764.19
2023-01-26T05:39:59.894Z,101775.13
2023-01-26T05:43:08.366Z,101776.81
2023-01-26T05:46:30.141Z,101787.84
2023-01-26T05:49:38.815Z,101792.06
2023-01-26T05:52:46.607Z,101797.16
2023-01-26T05:55:52.424Z,101797.94
2023-01-26T05:59:02.554Z,101798.00
2023-01-26T06:02:10.025Z,101813.16
2023-01-26T06:05:17.091Z,101817.38
2023-01-26T06:08:23.972Z,101814.84
2023-01-26T06:11:42.225Z,101824.97
2023-01-26T06:15:05.682Z,101826.66
2023-01-26T06:18:18.515Z,101840.16
2023-01-26T06:21:30.674Z,101836.81
2023-01-26T06:24:36.110Z,101846.91
2023-01-26T06:27:43.018Z,101847.84
2023-01-26T06:31:03.428Z,101847.00
2023-01-26T06:34:09.024Z,101863.94
2023-01-26T06:37:17.796Z,101866.47
2023-01-26T06:40:24.746Z,101866.47
2023-01-26T06:43:30.402Z,101872.34
2023-01-26T06:46:37.186Z,101866.38
2023-01-26T06:49:45.787Z,101876.63
2023-01-26T06:52:54.183Z,101887.59
2023-01-26T06:56:28.130Z,101885.03
2023-01-26T06:59:37.811Z,101881.63
2023-01-26T07:03:02.949Z,101900.28
2023-01-26T07:06:12.416Z,101898.56
2023-01-26T07:09:17.647Z,101901.19
2023-01-26T07:12:22.767Z,101909.59
2023-01-26T07:15:28.950Z,101920.41
2023-01-26T07:18:37.246Z,101920.44
2023-01-26T07:21:42.655Z,101922.19
2023-01-26T07:24:47.949Z,101927.34
2023-01-26T07:27:57.783Z,101934.91
2023-01-26T07:31:03.893Z,101944.22
2023-01-26T07:34:12.025Z,101955.22
2023-01-26T07:37:17.362Z,101956.84
2023-01-26T07:40:22.576Z,101965.34
2023-01-26T07:43:27.771Z,101958.63
2023-01-26T07:46:32.697Z,101971.31
2023-01-26T07:49:39.707Z,101970.34
2023-01-26T07:52:45.029Z,101969.53
2023-01-26T07:55:50.534Z,101980.50
2023-01-26T07:58:56.477Z,101983.03
2023-01-26T08:02:02.659Z,101983.06
2023-01-26T08:05:10.577Z,101998.19
2023-01-26T08:08:17.740Z,101999.84
2023-01-26T08:11:25.788Z,101999.72
2023-01-26T08:14:45.132Z,102004.88
2023-01-26T08:17:53.547Z,102014.94
2023-01-26T08:21:02.028Z,102021.59
2023-01-26T08:24:08.056Z,102036.75
2023-01-26T08:27:13.221Z,102041.81
2023-01-26T08:30:19.115Z,102046.81
2023-01-26T08:33:24.224Z,102055.19
2023-01-26T08:36:31.272Z,102045.00
2023-01-26T08:39:36.565Z,102054.25
2023-01-26T08:42:41.736Z,102061.72
2023-01-26T08:45:49.078Z,102065.09
2023-01-26T08:48:58.247Z,102068.44
2023-01-26T08:52:06.829Z,102071.72
2023-01-26T08:55:12.203Z,102082.66
2023-01-26T08:58:17.613Z,102092.72
2023-01-26T09:01:22.871Z,102095.31
2023-01-26T09:04:28.821Z,102097.00
2023-01-26T09:07:35.494Z,102112.13
2023-01-26T09:10:41.235Z,102103.63
2023-01-26T09:13:47.676Z,102108.66
2023-01-26T09:16:52.693Z,102120.41
2023-01-26T09:19:57.893Z,102121.28
2023-01-26T09:23:04.549Z,102116.22
2023-01-26T09:26:09.848Z,102110.28
2023-01-26T09:29:17.900Z,102110.28
2023-01-26T09:32:23.176Z,102124.69
2023-01-26T09:35:28.451Z,102123.00
2023-01-26T09:38:35.197Z,102135.75
2023-01-26T09:41:51.256Z,102137.34
2023-01-26T09:45:01.714Z,102138.22
2023-01-26T09:48:25.271Z,102154.22
2023-01-26T09:51:35.490Z,102160.03
2023-01-26T09:54:44.900Z,102152.47
2023-01-26T09:57:52.021Z,102152.31
2023-01-26T10:01:00.158Z,102158.16
2023-01-26T10:04:11.761Z,102169.16
2023-01-26T10:07:17.545Z,102177.44
2023-01-26T10:10:29.728Z,102179.03
2023-01-26T10:13:36.800Z,102194.16
2023-01-26T10:16:42.735Z,102183.88
2023-01-26T10:19:51.235Z,102193.13
2023-01-26T10:22:58.213Z,102214.25
2023-01-26T10:26:14.260Z,102206.53
2023-01-26T10:29:20.779Z,102211.50
2023-01-26T10:32:26.095Z,102218.31
2023-01-26T10:35:31.882Z,102230.13
2023-01-26T10:38:42.924Z,102234.34
2023-01-26T10:42:00.987Z,102252.13
2023-01-26T10:45:08.400Z,102246.34
2023-01-26T10:48:20.056Z,102247.94
2023-01-26T10:51:31.343Z,102245.38
2023-01-26T10:54:38.221Z,102248.69
2023-01-26T10:57:45.183Z,102249.47
2023-01-26T11:00:57.705Z,102258.06
2023-01-26T11:04:06.978Z,102254.50
2023-01-26T11:07:26.424Z,102250.34
2023-01-26T11:10:33.999Z,102268.75
2023-01-26T11:13:40.905Z,102279.88
2023-01-26T11:16:49.324Z,102290.91
2023-01-26T11:20:04.641Z,102281.50
2023-01-26T11:23:18.560Z,102265.47
2023-01-26T11:27:02.385Z,102284.03
2023-01-26T11:30:39.480Z,102288.09
2023-01-26T11:33:51.729Z,102296.47
2023-01-26T11:37:07.294Z,102290.59
2023-01-26T11:40:26.020Z,102301.69
2023-01-26T11:43:48.458Z,102299.03
2023-01-26T11:47:03.390Z,102301.66
2023-01-26T11:50:24.416Z,102303.16
2023-01-26T11:53:54.066Z,102319.19
2023-01-26T11:57:09.130Z,102313.41
2023-01-26T12:00:29.559Z,102308.28
2023-01-26T12:03:43.164Z,102309.88
2023-01-26T12:06:53.697Z,102311.50
2023-01-26T12:10:02.616Z,102317.53
2023-01-26T12:13:12.130Z,102314.88
2023-01-26T12:16:22.579Z,102328.44
2023-01-26T12:19:45.205Z,102324.31
2023-01-26T12:22:55.212Z,102320.91
2023-01-26T12:26:02.571Z,102329.09
2023-01-26T12:29:13.262Z,102328.38
2023-01-26T12:32:18.652Z,102321.75
2023-01-26T12:35:34.326Z,102329.41
2023-01-26T12:38:45.048Z,102336.09
2023-01-26T12:42:07.743Z,102333.50
2023-01-26T12:45:18.448Z,102341.75
2023-01-26T12:48:27.195Z,102347.56
2023-01-26T12:51:37.076Z,102344.28
2023-01-26T12:54:47.173Z,102339.09
2023-01-26T12:57:55.260Z,102352.47
2023-01-26T13:01:03.691Z,102349.16
2023-01-26T13:04:12.032Z,102360.66
2023-01-26T13:07:36.700Z,102372.53
2023-01-26T13:10:51.180Z,102384.63
2023-01-26T13:13:58.005Z,102385.16
2023-01-26T13:17:36.784Z,102387.69
2023-01-26T13:20:46.474Z,102397.72
2023-01-26T13:23:53.171Z,102398.38
2023-01-26T13:26:59.964Z,102404.25
2023-01-26T13:30:05.718Z,102413.34
2023-01-26T13:33:24.544Z,102437.81
2023-01-26T13:36:34.902Z,102427.72
2023-01-26T13:39:45.372Z,102428.38
2023-01-26T13:42:57.209Z,102428.44
2023-01-26T13:46:15.827Z,102417.25
2023-01-26T13:49:28.106Z,102433.78
2023-01-26T13:52:33.298Z,102441.22
2023-01-26T13:55:42.362Z,102441.44
2023-01-26T13:58:47.820Z,102451.44
2023-01-26T14:01:56.834Z,102449.72
2023-01-26T14:05:03.537Z,102467.34
2023-01-26T14:08:13.199Z,102474.78
2023-01-26T14:11:30.945Z,102478.66
2023-01-26T14:14:37.882Z,102471.94
2023-01-26T14:17:50.353Z,102485.53
2023-01-26T14:21:01.549Z,102476.75
2023-01-26T14:24:11.184Z,102487.59
2023-01-26T14:27:30.993Z,102497.78
2023-01-26T14:30:37.013Z,102506.13
2023-01-26T14:33:43.367Z,102509.34
2023-01-26T14:36:48.850Z,102512.59
2023-01-26T14:40:16.196Z,102519.34
2023-01-26T14:43:24.051Z,102522.66
2023-01-26T14:46:31.314Z,102528.66
2023-01-26T14:49:44.015Z,102534.41
2023-01-26T14:53:22.274Z,102535.22
2023-01-26T14:57:01.536Z,102535.53
2023-01-26T15:00:19.875Z,102549.00
2023-01-26T15:03:27.666Z,102561.53
2023-01-26T15:06:33.947Z,102554.97
2023-01-26T15:09:40.050Z,102544.63
2023-01-26T15:12:45.355Z,102556.47
2023-01-26T15:16:06.020Z,102553.78
2023-01-26T15:19:25.051Z,102565.63
2023-01-26T15:22:30.417Z,102562.34
2023-01-26T15:25:38.473Z,102570.34
2023-01-26T15:28:44.297Z,102564.50
2023-01-26T15:31:56.419Z,102571.91
2023-01-26T15:35:20.084Z,102576.09
2023-01-26T15:38:25.549Z,102593.50
2023-01-26T15:41:30.949Z,102588.50
2023-01-26T15:44:36.181Z,102591.47
2023-01-26T15:47:43.166Z,102593.13
2023-01-26T15:50:48.985Z,102591.38
2023-01-26T15:53:54.220Z,102588.06
2023-01-26T15:56:59.515Z,102598.16
2023-01-26T16:00:07.810Z,102599.75
2023-01-26T16:03:17.828Z,102600.47
2023-01-26T16:06:28.114Z,102587.59
2023-01-26T16:09:33.396Z,102615.38
2023-01-26T16:12:39.864Z,102617.72
2023-01-26T16:15:45.963Z,102619.50
2023-01-26T16:18:52.857Z,102610.22
2023-01-26T16:21:57.916Z,102623.63
2023-01-26T16:25:03.296Z,102631.19
2023-01-26T16:28:08.470Z,102633.56
2023-01-26T16:31:16.939Z,102631.03
2023-01-26T16:34:23.467Z,102643.34
2023-01-26T16:37:28.838Z,102632.38
2023-01-26T16:40:34.447Z,102624.84
2023-01-26T16:43:42.658Z,102622.34
2023-01-26T16:46:48.511Z,102633.94
2023-01-26T16:49:55.145Z,102633.94
2023-01-26T16:53:00.798Z,102643.75
2023-01-26T16:56:07.941Z,102644.09
2023-01-26T16:59:14.488Z,102651.44
2023-01-26T17:02:25.305Z,102652.53
2023-01-26T17:05:33.907Z,102662.44
2023-01-26T17:08:43.041Z,102666.56
2023-01-26T17:11:49.537Z,102681.69
2023-01-26T17:14:55.187Z,102674.84
2023-01-26T17:18:01.453Z,102670.03
2023-01-26T17:21:10.625Z,102664.09
2023-01-26T17:24:18.062Z,102657.31
2023-01-26T17:27:23.533Z,102670.78
2023-01-26T17:30:29.086Z,102673.78
2023-01-26T17:33:37.124Z,102679.59
2023-01-26T17:36:45.912Z,102675.25
2023-01-26T17:39:51.810Z,102676.22
2023-01-26T17:42:57.211Z,102686.97
2023-01-26T17:46:06.995Z,102697.91
2023-01-26T17:49:12.359Z,102691.78
2023-01-26T17:52:19.047Z,102695.41
2023-01-26T17:55:24.352Z,102703.81
2023-01-26T17:58:29.622Z,102708.06
2023-01-26T18:01:34.875Z,102700.63
2023-01-26T18:04:39.892Z,102711.31
2023-01-26T18:07:49.731Z,102718.03
2023-01-26T18:10:59.545Z,102733.63
2023-01-26T18:14:05.800Z,102735.72
2023-01-26T18:17:13.582Z,102719.38
2023-01-26T18:20:19.181Z,102720.91
2023-01-26T18:23:27.961Z,102734.25
2023-01-26T18:26:36.063Z,102746.22
2023-01-26T18:29:43.717Z,102734.81
2023-01-26T18:32:49.112Z,102740.69
2023-01-26T18:35:54.330Z,102735.03
2023-01-26T18:39:03.315Z,102736.53
2023-01-26T18:42:08.819Z,102743.34
2023-01-26T18:45:16.369Z,102745.75
2023-01-26T18:48:21.752Z,102763.25
2023-01-26T18:51:27.576Z,102763.38
2023-01-26T18:54:34.470Z,102758.41
2023-01-26T18:57:39.711Z,102766.75
2023-01-26T19:00:45.011Z,102767.56
2023-01-26T19:03:55.676Z,102764.69
2023-01-26T19:07:00.973Z,102778.91
2023-01-26T19:10:08.860Z,102784.84
2023-01-26T19:13:14.452Z,102789.03
2023-01-26T19:16:19.630Z,102787.19
2023-01-26T19:19:25.300Z,102776.25
2023-01-26T19:22:30.414Z,102783.81
2023-01-26T19:25:41.187Z,102786.38
2023-01-26T19:28:48.900Z,102792.97
2023-01-26T19:31:55.682Z,102801.56
2023-01-26T19:35:01.668Z,102801.22
2023-01-26T19:38:07.821Z,102796.22
2023-01-26T19:41:16.887Z,102797.66
2023-01-26T19:44:22.662Z,102796.59
2023-01-26T19:47:28.151Z,102798.25
2023-01-26T19:50:33.563Z,102800.66
2023-01-26T19:53:40.581Z,102789.78
2023-01-26T19:56:47.515Z,102806.00
2023-01-26T19:59:54.097Z,102799.91
2023-01-26T20:02:58.955Z,102812.38
2023-01-26T20:06:07.682Z,102804.81
2023-01-26T20:09:14.109Z,102813.88
2023-01-26T20:12:20.444Z,102782.09
2023-01-26T20:15:25.842Z,102792.81
2023-01-26T20:18:31.166Z,102791.16
2023-01-26T20:21:41.150Z,102803.53
2023-01-26T20:24:46.377Z,102797.59
2023-01-26T20:27:53.445Z,102807.72
2023-01-26T20:31:04.231Z,102810.91
2023-01-26T20:34:09.489Z,102818.09
2023-01-26T20:37:14.635Z,102803.19
2023-01-26T20:40:19.966Z,102790.69
2023-01-26T20:43:28.057Z,102815.78
2023-01-26T20:46:35.333Z,102817.16
2023-01-26T20:49:40.656Z,102823.13
2023-01-26T20:52:45.965Z,102829.63
2023-01-26T20:55:57.620Z,102822.81
2023-01-26T20:59:04.470Z,102816.03
2023-01-26T21:02:15.435Z,102825.38
2023-01-26T21:05:22.353Z,102827.84
2023-01-26T21:08:28.596Z,102824.53
2023-01-26T21:11:34.616Z,102821.84
2023-01-26T21:14:45.409Z,102816.75
2023-01-26T21:17:53.241Z,102813.31
2023-01-26T21:20:59.598Z,102814.22
2023-01-26T21:24:05.082Z,102830.34
2023-01-26T21:27:11.870Z,102827.66
2023-01-26T21:30:20.919Z,102823.44
2023-01-26T21:33:26.187Z,102836.88
2023-01-26T21:36:32.245Z,102852.56
2023-01-26T21:39:37.445Z,102856.47
2023-01-26T21:42:42.814Z,102853.38
2023-01-26T21:45:55.975Z,102846.47
2023-01-26T21:49:01.573Z,102856.47
2023-01-26T21:52:24.168Z,102860.53
2023-01-26T21:55:29.342Z,102863.94
2023-01-26T21:58:57.853Z,102849.66
2023-01-26T22:02:05.532Z,102859.72
2023-01-26T22:05:12.077Z,102873.06
2023-01-26T22:08:17.239Z,102878.72
2023-01-26T22:11:22.612Z,102885.50
2023-01-26T22:14:27.885Z,102878.72
2023-01-26T22:17:34.643Z,102872.78
2023-01-26T22:20:39.809Z,102878.59
2023-01-26T22:23:47.362Z,102882.63
2023-01-26T22:26:52.693Z,102884.81
2023-01-26T22:29:57.965Z,102870.66
2023-01-26T22:33:04.817Z,102871.69
2023-01-26T22:36:12.309Z,102869.03
2023-01-26T22:39:17.667Z,102861.50
2023-01-26T22:42:23.419Z,102887.34
2023-01-26T22:45:28.651Z,102881.44
2023-01-26T22:48:35.720Z,102886.47
2023-01-26T22:51:43.023Z,102892.31
2023-01-26T22:54:48.500Z,102882.31
2023-01-26T22:57:53.357Z,102891.31
2023-01-26T23:01:08.823Z,102897.91
2023-01-26T23:04:15.762Z,102910.56
2023-01-26T23:07:20.866Z,102898.84
2023-01-26T23:10:26.132Z,102896.19
2023-01-26T23:13:31.620Z,102904.38
2023-01-26T23:16:36.955Z,102907.72
2023-01-26T23:19:43.544Z,102905.72
2023-01-26T23:22:49.370Z,102899.81
2023-01-26T23:25:54.668Z,102904.91
2023-01-26T23:29:00.229Z,102903.34
2023-01-26T23:32:05.160Z,102898.97
2023-01-26T23:35:12.389Z,102921.59
2023-01-26T23:38:18.163Z,102924.09
2023-01-26T23:41:23.598Z,102930.00
2023-01-26T23:44:28.715Z,102920.72
2023-01-26T23:47:34.430Z,102927.41
2023-01-26T23:50:41.879Z,102932.22
2023-01-26T23:53:47.346Z,102935.44
2023-01-26T23:56:52.631Z,102942.09
